Time,TemperatureF,DewpointF,PressureIn,WindDirection,WindDirectionDegrees,WindSpeedMPH,WindSpeedGustMPH,Humidity,HourlyPrecipIn,Conditions,Clouds,dailyrainin,SoftwareType,DateUTC
2013-01-23 00:16:00,8.0,1.5,30.26,SW,228,5.0,6.0,74,0.00,,,0.00,VWS V14.01,2013-01-23 05:16:00,
2013-01-23 00:31:00,7.8,0.7,30.26,WSW,252,0.0,7.0,72,0.00,,,0.00,VWS V14.01,2013-01-23 05:31:00,
2013-01-23 00:46:00,7.8,0.7,30.25,West,261,0.0,7.0,72,0.00,,,0.00,VWS V14.01,2013-01-23 05:46:00,
2013-01-23 01:01:00,7.8,0.7,30.25,WSW,238,1.0,9.0,72,0.00,,,0.00,VWS V14.01,2013-01-23 06:01:00,
2013-01-23 01:16:00,7.5,0.1,30.25,West,263,0.0,11.0,71,0.00,,,0.00,VWS V14.01,2013-01-23 06:16:00,
2013-01-23 01:46:00,7.7,0.3,30.26,WNW,284,8.0,8.0,71,0.00,,,0.00,VWS V14.01,2013-01-23 06:46:00,
2013-01-23 02:01:00,7.6,0.2,30.26,WNW,283,1.0,10.0,71,0.00,,,0.00,VWS V14.01,2013-01-23 07:01:00,
2013-01-23 02:16:00,7.9,0.5,30.27,WNW,290,1.0,8.0,71,0.00,,,0.00,VWS V14.01,2013-01-23 07:16:00,
2013-01-23 02:31:00,8.2,1.4,30.28,WNW,286,3.0,6.0,73,0.00,,,0.00,VWS V14.01,2013-01-23 07:31:00,
2013-01-23 02:46:00,8.1,2.4,30.28,WNW,285,2.0,8.0,77,0.00,,,0.00,VWS V14.01,2013-01-23 07:46:00,
2013-01-23 03:01:00,8.0,3.1,30.28,WNW,297,7.0,12.0,80,0.00,,,0.00,VWS V14.01,2013-01-23 08:01:00,
2013-01-23 03:16:00,8.0,3.7,30.28,WNW,289,4.0,9.0,82,0.00,,,0.00,VWS V14.01,2013-01-23 08:16:00,
2013-01-23 03:31:00,7.8,3.7,30.28,WNW,298,4.0,7.0,83,0.00,,,0.00,VWS V14.01,2013-01-23 08:31:00,
2013-01-23 03:46:00,7.8,3.7,30.28,NW,305,7.0,10.0,83,0.00,,,0.00,VWS V14.01,2013-01-23 08:46:00,
2013-01-23 04:16:00,7.7,3.9,30.28,NW,304,5.0,8.0,84,0.00,,,0.00,VWS V14.01,2013-01-23 09:16:00,
2013-01-23 04:31:00,7.8,4.0,30.28,West,281,3.0,9.0,84,0.00,,,0.00,VWS V14.01,2013-01-23 09:31:00,
2013-01-23 04:46:00,7.7,3.9,30.28,West,267,0.0,6.0,84,0.00,,,0.00,VWS V14.01,2013-01-23 09:46:00,
2013-01-23 05:01:00,7.4,3.6,30.28,West,269,0.0,8.0,84,0.00,,,0.00,VWS V14.01,2013-01-23 10:01:00,
2013-01-23 05:16:00,7.4,3.8,30.29,West,266,6.0,7.0,85,0.00,,,0.00,VWS V14.01,2013-01-23 10:16:00,
2013-01-23 05:31:00,7.3,3.8,30.29,West,275,1.0,6.0,85,0.00,,,0.00,VWS V14.01,2013-01-23 10:31:00,
2013-01-23 05:46:00,7.1,3.5,30.29,WNW,290,0.0,4.0,85,0.00,,,0.00,VWS V14.01,2013-01-23 10:46:00,
2013-01-23 06:16:00,6.7,3.4,30.30,WNW,289,0.0,2.0,86,0.00,,,0.00,VWS V14.01,2013-01-23 11:16:00,
2013-01-23 06:31:00,7.1,3.8,30.30,West,271,2.0,3.0,86,0.00,,,0.00,VWS V14.01,2013-01-23 11:31:00,
2013-01-23 06:46:00,7.4,4.1,30.30,West,268,1.0,5.0,86,0.00,,,0.00,VWS V14.01,2013-01-23 11:46:00,
2013-01-23 07:01:00,7.8,4.5,30.30,West,280,0.0,6.0,86,0.00,,,0.00,VWS V14.01,2013-01-23 12:01:00,
2013-01-23 07:16:00,7.6,4.0,30.30,West,263,2.0,5.0,85,0.00,,,0.00,VWS V14.01,2013-01-23 12:16:00,
2013-01-23 07:31:00,7.3,3.8,30.30,West,273,0.0,4.0,85,0.00,,,0.00,VWS V14.01,2013-01-23 12:31:00,
2013-01-23 07:46:00,7.1,3.5,30.31,West,271,0.0,3.0,85,0.00,,,0.00,VWS V14.01,2013-01-23 12:46:00,
2013-01-23 08:16:00,7.2,3.7,30.31,WNW,283,0.0,2.0,85,0.00,,,0.00,VWS V14.01,2013-01-23 13:16:00,
2013-01-23 08:31:00,7.6,4.0,30.31,NW,307,2.0,6.0,85,0.00,,,0.00,VWS V14.01,2013-01-23 13:31:00,
2013-01-23 08:46:00,8.2,4.4,30.32,West,278,3.0,6.0,84,0.00,,,0.00,VWS V14.01,2013-01-23 13:46:00,
2013-01-23 09:01:00,8.9,4.8,30.33,West,279,3.0,7.0,83,0.00,,,0.00,VWS V14.01,2013-01-23 14:01:00,
2013-01-23 09:16:00,9.2,5.1,30.33,West,278,3.0,5.0,83,0.00,,,0.00,VWS V14.01,2013-01-23 14:16:00,
2013-01-23 09:31:00,9.5,4.9,30.33,West,279,2.0,5.0,81,0.00,,,0.00,VWS V14.01,2013-01-23 14:31:00,
2013-01-23 09:46:00,10.3,5.1,30.34,WSW,246,2.0,10.0,79,0.00,,,0.00,VWS V14.01,2013-01-23 14:46:00,
2013-01-23 10:01:00,10.7,4.9,30.34,West,279,3.0,9.0,77,0.00,,,0.00,VWS V14.01,2013-01-23 15:01:00,
2013-01-23 10:16:00,10.5,4.7,30.34,West,273,2.0,9.0,77,0.00,,,0.00,VWS V14.01,2013-01-23 15:16:00,
2013-01-23 10:31:00,11.6,6.1,30.33,WNW,292,1.0,5.0,78,0.00,,,0.00,VWS V14.01,2013-01-23 15:31:00,
2013-01-23 10:46:00,11.5,5.7,30.33,WNW,284,0.0,5.0,77,0.00,,,0.00,VWS V14.01,2013-01-23 15:46:00,
2013-01-23 11:01:00,11.4,4.4,30.33,WNW,283,4.0,5.0,73,0.00,,,0.00,VWS V14.01,2013-01-23 16:01:00,
2013-01-23 11:16:00,11.8,4.8,30.32,WNW,283,0.0,4.0,73,0.00,,,0.00,VWS V14.01,2013-01-23 16:16:00,
2013-01-23 11:31:00,13.1,7.0,30.31,NW,320,1.0,5.0,76,0.00,,,0.00,VWS V14.01,2013-01-23 16:31:00,
2013-01-23 11:46:00,13.2,5.3,30.31,West,274,0.0,6.0,70,0.00,,,0.00,VWS V14.01,2013-01-23 16:46:00,
2013-01-23 12:01:00,13.3,4.7,30.30,West,268,0.0,6.0,68,0.00,,,0.00,VWS V14.01,2013-01-23 17:01:00,
2013-01-23 12:16:00,12.3,3.1,30.30,WNW,283,0.0,8.0,66,0.00,,,0.00,VWS V14.01,2013-01-23 17:16:00,
2013-01-23 12:31:00,12.4,3.9,30.29,West,265,0.0,6.0,68,0.00,,,0.00,VWS V14.01,2013-01-23 17:31:00,
2013-01-23 12:46:00,12.9,4.3,30.28,West,265,4.0,4.0,68,0.00,,,0.00,VWS V14.01,2013-01-23 17:46:00,
2013-01-23 13:01:00,13.0,3.5,30.28,WNW,297,3.0,7.0,65,0.00,,,0.00,VWS V14.01,2013-01-23 18:01:00,
2013-01-23 13:16:00,13.3,3.4,30.27,SW,232,3.0,7.0,64,0.00,,,0.00,VWS V14.01,2013-01-23 18:16:00,
2013-01-23 13:31:00,13.5,2.9,30.26,West,281,4.0,9.0,62,0.00,,,0.00,VWS V14.01,2013-01-23 18:31:00,
2013-01-23 13:46:00,13.2,1.9,30.26,NW,305,1.0,7.0,60,0.00,,,0.00,VWS V14.01,2013-01-23 18:46:00,
2013-01-23 14:01:00,13.4,3.8,30.26,WSW,246,0.0,7.0,65,0.00,,,0.00,VWS V14.01,2013-01-23 19:01:00,
2013-01-23 14:16:00,14.0,4.1,30.26,WNW,295,0.0,5.0,64,0.00,,,0.00,VWS V14.01,2013-01-23 19:16:00,
2013-01-23 14:31:00,13.7,2.4,30.26,West,279,5.0,9.0,60,0.00,,,0.00,VWS V14.01,2013-01-23 19:31:00,
2013-01-23 14:46:00,14.0,4.1,30.26,West,271,0.0,6.0,64,0.00,,,0.00,VWS V14.01,2013-01-23 19:46:00,
2013-01-23 15:01:00,13.6,4.4,30.26,WNW,284,4.0,9.0,66,0.00,,,0.00,VWS V14.01,2013-01-23 20:01:00,
2013-01-23 15:16:00,13.4,5.1,30.26,WNW,287,2.0,5.0,69,0.00,,,0.00,VWS V14.01,2013-01-23 20:16:00,
2013-01-23 15:31:00,13.7,6.7,30.26,West,275,1.0,4.0,73,0.00,,,0.00,VWS V14.01,2013-01-23 20:31:00,
2013-01-23 15:46:00,13.6,6.0,30.25,West,267,0.0,5.0,71,0.00,,,0.00,VWS V14.01,2013-01-23 20:46:00,
2013-01-23 16:01:00,13.4,6.1,30.25,West,267,0.0,2.0,72,0.00,,,0.00,VWS V14.01,2013-01-23 21:01:00,
2013-01-23 16:16:00,13.3,6.6,30.25,NW,318,0.0,2.0,74,0.00,,,0.00,VWS V14.01,2013-01-23 21:16:00,
2013-01-23 16:31:00,13.0,7.2,30.25,NW,319,0.0,2.0,77,0.00,,,0.00,VWS V14.01,2013-01-23 21:31:00,
2013-01-23 16:46:00,12.9,7.3,30.24,NW,319,0.0,2.0,78,0.00,,,0.00,VWS V14.01,2013-01-23 21:46:00,
2013-01-23 17:01:00,13.0,7.7,30.24,NW,319,0.0,1.0,79,0.00,,,0.00,VWS V14.01,2013-01-23 22:01:00,
2013-01-23 17:16:00,13.0,7.7,30.23,NW,319,1.0,2.0,79,0.00,,,0.00,VWS V14.01,2013-01-23 22:16:00,
2013-01-23 17:31:00,12.8,7.5,30.24,NW,319,0.0,1.0,79,0.00,,,0.00,VWS V14.01,2013-01-23 22:31:00,
2013-01-23 17:46:00,12.6,7.6,30.23,NW,321,0.0,1.0,80,0.00,,,0.00,VWS V14.01,2013-01-23 22:46:00,
2013-01-23 18:01:00,12.6,7.9,30.23,South,177,1.0,3.0,81,0.00,,,0.00,VWS V14.01,2013-01-23 23:01:00,
2013-01-23 18:16:00,12.8,7.8,30.23,SE,144,3.0,5.0,80,0.00,,,0.00,VWS V14.01,2013-01-23 23:16:00,
2013-01-23 18:31:00,11.9,7.7,30.24,SE,138,0.0,5.0,83,0.00,,,0.00,VWS V14.01,2013-01-23 23:31:00,
2013-01-23 18:46:00,11.5,7.6,30.23,SSE,149,2.0,4.0,84,0.00,,,0.00,VWS V14.01,2013-01-23 23:46:00,
2013-01-23 19:01:00,11.2,7.3,30.23,SSE,150,2.0,4.0,84,0.00,,,0.00,VWS V14.01,2013-01-24 00:01:00,
2013-01-23 19:16:00,10.8,7.2,30.23,SSE,151,0.0,3.0,85,0.00,,,0.00,VWS V14.01,2013-01-24 00:16:00,
2013-01-23 19:31:00,10.3,6.7,30.23,SSE,151,0.0,3.0,85,0.00,,,0.00,VWS V14.01,2013-01-24 00:31:00,
2013-01-23 19:46:00,9.7,6.1,30.23,SSE,150,0.0,1.0,85,0.00,,,0.00,VWS V14.01,2013-01-24 00:46:00,
2013-01-23 20:01:00,9.3,6.0,30.22,SSE,150,0.0,0.0,86,0.00,,,0.00,VWS V14.01,2013-01-24 01:01:00,
2013-01-23 20:16:00,8.9,5.6,30.22,SSE,150,0.0,2.0,86,0.00,,,0.00,VWS V14.01,2013-01-24 01:16:00,
2013-01-23 20:31:00,8.2,4.9,30.22,SSE,151,0.0,0.0,86,0.00,,,0.00,VWS V14.01,2013-01-24 01:31:00,
2013-01-23 20:46:00,7.9,4.8,30.22,SSE,151,0.0,1.0,87,0.00,,,0.00,VWS V14.01,2013-01-24 01:46:00,
2013-01-23 21:01:00,7.8,4.7,30.22,SSE,151,0.0,3.0,87,0.00,,,0.00,VWS V14.01,2013-01-24 02:01:00,
2013-01-23 21:16:00,7.6,4.6,30.22,SSE,151,0.0,2.0,87,0.00,,,0.00,VWS V14.01,2013-01-24 02:16:00,
2013-01-23 21:31:00,7.4,4.3,30.21,SSE,160,0.0,3.0,87,0.00,,,0.00,VWS V14.01,2013-01-24 02:31:00,
2013-01-23 21:46:00,7.4,4.3,30.21,SSE,160,0.0,1.0,87,0.00,,,0.00,VWS V14.01,2013-01-24 02:46:00,
2013-01-23 22:01:00,7.5,4.7,30.21,SSE,160,0.0,1.0,88,0.00,,,0.00,VWS V14.01,2013-01-24 03:01:00,
2013-01-23 22:16:00,7.6,4.8,30.21,SSE,160,0.0,2.0,88,0.00,,,0.00,VWS V14.01,2013-01-24 03:16:00,
2013-01-23 22:31:00,7.8,5.0,30.21,South,178,0.0,3.0,88,0.00,,,0.00,VWS V14.01,2013-01-24 03:31:00,
2013-01-23 22:46:00,8.3,5.5,30.21,SW,214,3.0,4.0,88,0.00,,,0.00,VWS V14.01,2013-01-24 03:46:00,
2013-01-23 23:01:00,9.1,6.5,30.20,SW,217,3.0,5.0,89,0.00,,,0.00,VWS V14.01,2013-01-24 04:01:00,
2013-01-23 23:16:00,9.9,7.1,30.19,SSW,209,2.0,4.0,88,0.00,,,0.00,VWS V14.01,2013-01-24 04:16:00,
2013-01-23 23:31:00,10.8,7.4,30.20,SW,217,2.0,6.0,86,0.00,,,0.00,VWS V14.01,2013-01-24 04:31:00,
2013-01-23 23:46:00,11.9,7.7,30.20,SSW,211,2.0,7.0,83,0.00,,,0.00,VWS V14.01,2013-01-24 04:46:00,